createdAt,value
2018-06-14T00:02:16.468Z,11.00
2018-06-14T00:04:45.080Z,11.00
2018-06-14T00:07:13.799Z,11.00
2018-06-14T00:09:42.797Z,11.00
2018-06-14T00:12:11.331Z,11.00
2018-06-14T00:14:39.861Z,11.00
2018-06-14T00:17:08.500Z,11.00
2018-06-14T00:19:37.008Z,10.90
2018-06-14T00:22:05.684Z,10.90
2018-06-14T00:24:34.447Z,10.90
2018-06-14T00:27:03.032Z,10.80
2018-06-14T00:29:31.566Z,10.80
2018-06-14T00:32:00.099Z,10.70
2018-06-14T00:34:28.640Z,10.70
2018-06-14T00:39:25.401Z,10.60
2018-06-14T00:41:53.919Z,10.60
2018-06-14T00:44:22.459Z,10.50
2018-06-14T00:46:51.114Z,10.40
2018-06-14T00:49:19.688Z,10.40
2018-06-14T00:54:16.893Z,10.30
2018-06-14T00:56:57.795Z,10.30
2018-06-14T00:59:26.390Z,10.30
2018-06-14T01:01:55.020Z,10.20
2018-06-14T01:04:23.564Z,10.20
2018-06-14T01:06:52.274Z,10.20
2018-06-14T01:09:20.803Z,10.20
2018-06-14T01:11:49.374Z,10.10
2018-06-14T01:14:17.978Z,10.10
2018-06-14T01:16:47.002Z,10.00
2018-06-14T01:19:15.681Z,10.00
2018-06-14T01:21:44.325Z,10.00
2018-06-14T01:24:12.940Z,10.00
2018-06-14T01:29:09.671Z,10.00
2018-06-14T01:31:38.140Z,9.90
2018-06-14T01:34:06.641Z,9.90
2018-06-14T01:36:35.169Z,9.90
2018-06-14T01:39:04.656Z,9.90
2018-06-14T01:41:33.199Z,10.00
2018-06-14T01:44:01.753Z,10.00
2018-06-14T01:46:30.271Z,10.00
2018-06-14T01:48:58.791Z,10.00
2018-06-14T01:51:27.356Z,10.00
2018-06-14T01:53:55.860Z,10.00
2018-06-14T01:56:24.440Z,10.00
2018-06-14T01:58:52.980Z,10.00
2018-06-14T02:03:50.176Z,10.10
2018-06-14T02:06:19.336Z,10.10
2018-06-14T02:08:48.130Z,10.10
2018-06-14T02:11:16.739Z,10.10
2018-06-14T02:13:45.433Z,10.00
2018-06-14T02:18:42.736Z,9.90
2018-06-14T02:21:11.287Z,9.90
2018-06-14T02:23:39.817Z,9.90
2018-06-14T02:26:08.366Z,9.90
2018-06-14T02:28:36.880Z,9.90
2018-06-14T02:31:05.373Z,9.80
2018-06-14T02:33:34.014Z,9.80
2018-06-14T02:36:02.611Z,9.70
2018-06-14T02:38:31.119Z,9.80
2018-06-14T02:40:59.866Z,9.70
2018-06-14T02:43:50.915Z,9.70
2018-06-14T02:46:49.596Z,9.60
2018-06-14T02:53:10.877Z,9.50
2018-06-14T04:02:45.353Z,8.70
2018-06-14T04:05:14.362Z,8.80
2018-06-14T04:07:56.067Z,8.90
2018-06-14T04:10:59.219Z,9.00
2018-06-14T04:16:28.703Z,9.10
2018-06-14T04:18:58.541Z,9.10
2018-06-14T04:23:03.470Z,9.20
2018-06-14T04:35:55.468Z,9.20
2018-06-14T04:41:41.064Z,9.30
2018-06-14T04:51:24.483Z,9.50
2018-06-14T04:53:52.961Z,9.50
2018-06-14T04:56:21.558Z,9.60
2018-06-14T04:58:50.109Z,9.70
2018-06-14T05:01:18.642Z,9.80
2018-06-14T05:03:47.124Z,9.80
2018-06-14T05:06:16.602Z,9.90
2018-06-14T05:08:45.151Z,10.00
2018-06-14T05:11:13.617Z,10.10
2018-06-14T05:13:42.189Z,10.10
2018-06-14T05:16:11.287Z,10.20
2018-06-14T05:18:39.795Z,10.20
2018-06-14T05:21:08.464Z,10.30
2018-06-14T05:23:37.132Z,10.40
2018-06-14T05:26:05.821Z,10.40
2018-06-14T05:28:34.716Z,10.50
2018-06-14T05:31:03.496Z,10.60
2018-06-14T05:33:32.793Z,10.60
2018-06-14T05:36:01.634Z,10.70
2018-06-14T05:38:31.070Z,10.70
2018-06-14T05:40:59.626Z,10.80
2018-06-14T05:43:28.757Z,10.80
2018-06-14T05:45:57.255Z,10.90
2018-06-14T05:48:25.785Z,10.90
2018-06-14T05:50:54.319Z,11.00
2018-06-14T05:53:22.836Z,11.10
2018-06-14T05:55:51.367Z,11.10
2018-06-14T05:58:19.878Z,11.20
2018-06-14T06:00:48.741Z,11.30
2018-06-14T06:03:17.308Z,11.30
2018-06-14T06:05:46.042Z,11.40
2018-06-14T06:08:14.614Z,11.40
2018-06-14T06:10:43.753Z,11.50
2018-06-14T06:13:12.317Z,11.60
2018-06-14T06:15:40.868Z,11.70
2018-06-14T06:18:09.393Z,11.80
2018-06-14T06:20:37.893Z,11.80
2018-06-14T06:23:06.477Z,11.90
2018-06-14T06:25:35.144Z,12.00
2018-06-14T06:28:03.982Z,12.10
2018-06-14T06:30:33.369Z,12.10
2018-06-14T06:33:06.370Z,12.20
2018-06-14T07:03:40.698Z,12.60
2018-06-14T07:14:15.282Z,12.90
2018-06-14T07:16:45.303Z,13.10
2018-06-14T07:19:25.290Z,13.20
2018-06-14T07:21:53.913Z,13.30
2018-06-14T07:24:22.493Z,13.50
2018-06-14T07:26:51.001Z,13.60
2018-06-14T07:29:19.641Z,13.70
2018-06-14T07:31:58.765Z,13.80
2018-06-14T07:34:27.960Z,13.90
2018-06-14T07:36:58.313Z,14.10
2018-06-14T07:55:39.521Z,14.20
2018-06-14T07:58:15.949Z,14.40
2018-06-14T08:00:45.896Z,14.70
2018-06-14T08:03:59.375Z,14.80
2018-06-14T08:12:04.773Z,14.90
2018-06-14T08:28:54.537Z,15.20
2018-06-14T08:46:12.088Z,15.60
2018-06-14T09:53:02.173Z,16.40
2018-06-14T09:55:44.231Z,18.00
2018-06-14T11:27:21.850Z,20.60
2018-06-14T11:31:45.620Z,20.80
2018-06-14T11:39:27.330Z,21.30
2018-06-14T11:46:26.646Z,21.70
2018-06-14T12:41:24.347Z,22.40
2018-06-14T12:43:54.067Z,23.40
2018-06-14T12:46:23.119Z,23.50
2018-06-14T12:48:52.025Z,23.70
2018-06-14T12:51:20.959Z,23.80
2018-06-14T12:53:49.477Z,24.00
2018-06-14T12:56:19.397Z,24.10
2018-06-14T12:58:48.411Z,24.10
2018-06-14T13:01:17.218Z,24.20
2018-06-14T13:03:46.019Z,24.30
2018-06-14T13:06:14.782Z,24.30
2018-06-14T13:08:43.279Z,24.40
2018-06-14T13:11:11.984Z,24.50
2018-06-14T13:13:40.475Z,24.70
2018-06-14T13:16:08.979Z,24.70
2018-06-14T13:18:37.623Z,24.70
2018-06-14T13:21:06.161Z,24.80
2018-06-14T13:23:35.144Z,24.80
2018-06-14T13:26:03.664Z,24.80
2018-06-14T13:28:32.159Z,24.90
2018-06-14T13:31:00.730Z,24.90
2018-06-14T13:33:29.392Z,25.00
2018-06-14T13:35:58.049Z,24.80
2018-06-14T13:38:26.706Z,24.80
2018-06-14T13:40:55.203Z,25.00
2018-06-14T13:43:24.058Z,25.20
2018-06-14T13:45:52.832Z,25.40
2018-06-14T13:50:49.592Z,25.60
2018-06-14T13:53:19.386Z,25.50
2018-06-14T13:55:48.990Z,25.50
2018-06-14T13:58:17.981Z,25.50
2018-06-14T14:00:47.224Z,25.50
2018-06-14T14:03:15.785Z,25.50
2018-06-14T14:05:45.066Z,25.70
2018-06-14T14:08:13.580Z,25.90
2018-06-14T14:10:42.063Z,26.20
2018-06-14T14:13:10.531Z,26.20
2018-06-14T14:15:39.033Z,26.30
2018-06-14T14:18:07.605Z,26.10
2018-06-14T14:20:36.454Z,26.00
2018-06-14T14:23:05.806Z,26.10
2018-06-14T14:25:35.050Z,26.50
2018-06-14T14:30:31.999Z,27.00
2018-06-14T14:35:29.572Z,27.10
2018-06-14T14:37:58.113Z,26.90
2018-06-14T14:40:26.638Z,26.80
2018-06-14T14:42:55.168Z,26.70
2018-06-14T14:45:24.688Z,26.80
2018-06-14T14:47:53.448Z,26.90
2018-06-14T14:50:22.088Z,27.10
2018-06-14T14:52:50.726Z,27.20
2018-06-14T14:55:19.212Z,27.10
2018-06-14T14:57:53.210Z,26.90
2018-06-14T15:07:59.665Z,26.40
2018-06-14T15:10:28.358Z,26.30
2018-06-14T15:12:56.930Z,26.30
2018-06-14T15:15:25.462Z,26.20
2018-06-14T15:17:54.201Z,26.20
2018-06-14T15:20:22.826Z,26.20
2018-06-14T15:22:53.981Z,26.00
2018-06-14T15:25:22.602Z,26.00
2018-06-14T15:27:51.511Z,26.00
2018-06-14T15:30:20.130Z,26.10
2018-06-14T15:32:48.691Z,26.10
2018-06-14T15:35:17.994Z,26.10
2018-06-14T15:37:46.560Z,26.00
2018-06-14T16:26:56.516Z,26.00
2018-06-14T16:29:27.841Z,22.10
2018-06-14T16:31:56.379Z,22.00
2018-06-14T16:34:25.025Z,21.90
2018-06-14T16:36:54.476Z,21.90
2018-06-14T16:39:23.112Z,21.90
2018-06-14T16:41:51.612Z,21.80
2018-06-14T16:44:20.151Z,21.70
2018-06-14T16:46:49.262Z,21.60
2018-06-14T16:49:17.983Z,21.60
2018-06-14T16:51:46.691Z,21.50
2018-06-14T16:54:16.782Z,21.30
2018-06-14T16:56:45.475Z,21.40
2018-06-14T16:59:15.909Z,21.30
2018-06-14T17:01:46.565Z,21.30
2018-06-14T17:04:19.344Z,21.20
2018-06-14T17:06:49.677Z,21.10
2018-06-14T17:12:15.364Z,20.90
2018-06-14T17:14:44.707Z,20.70
2018-06-14T17:17:15.022Z,20.70
2018-06-14T17:19:44.270Z,20.70
2018-06-14T17:22:13.498Z,20.80
2018-06-14T17:24:43.915Z,20.80
2018-06-14T17:27:12.741Z,20.70
2018-06-14T17:29:41.390Z,20.70
2018-06-14T17:32:10.132Z,20.60
2018-06-14T17:34:40.041Z,20.60
2018-06-14T17:37:08.931Z,20.60
2018-06-14T17:39:37.493Z,20.60
2018-06-14T17:42:06.595Z,20.50
2018-06-14T17:44:35.153Z,20.50
2018-06-14T17:47:04.616Z,20.40
2018-06-14T17:49:33.148Z,20.40
2018-06-14T17:52:01.688Z,20.40
2018-06-14T17:54:30.517Z,20.30
2018-06-14T17:57:00.122Z,20.30
2018-06-14T17:59:29.108Z,20.20
2018-06-14T18:01:57.643Z,20.10
2018-06-14T18:04:26.302Z,20.20
2018-06-14T18:06:55.094Z,20.10
2018-06-14T18:09:23.563Z,20.00
2018-06-14T18:11:52.161Z,19.90
2018-06-14T18:14:20.895Z,19.90
2018-06-14T18:16:50.013Z,19.80
2018-06-14T18:19:20.049Z,19.70
2018-06-14T18:21:48.663Z,19.70
2018-06-14T18:24:18.002Z,19.70
2018-06-14T18:26:47.490Z,19.70
2018-06-14T18:29:19.368Z,19.70
2018-06-14T18:31:50.603Z,19.70
2018-06-14T18:34:19.503Z,19.60
2018-06-14T18:36:48.235Z,19.60
2018-06-14T18:39:16.746Z,19.60
2018-06-14T18:41:45.302Z,19.60
2018-06-14T18:44:13.930Z,19.50
2018-06-14T18:46:43.082Z,19.30
2018-06-14T18:49:11.598Z,19.00
2018-06-14T18:51:40.274Z,18.80
2018-06-14T18:54:08.760Z,18.60
2018-06-14T18:56:37.314Z,18.40
2018-06-14T18:59:40.276Z,18.20
2018-06-14T19:02:15.030Z,18.10
2018-06-14T19:04:46.011Z,17.90
2018-06-14T19:07:14.773Z,17.70
2018-06-14T19:09:43.440Z,17.60
2018-06-14T19:12:13.396Z,17.50
2018-06-14T19:14:42.070Z,17.50
2018-06-14T19:17:11.298Z,17.40
2018-06-14T19:19:42.457Z,17.40
2018-06-14T19:22:12.198Z,17.30
2018-06-14T19:24:41.129Z,17.30
2018-06-14T19:27:10.609Z,17.20
2018-06-14T19:29:40.206Z,17.10
2018-06-14T19:32:11.255Z,17.10
2018-06-14T19:37:11.813Z,17.10
2018-06-14T19:39:41.630Z,17.00
2018-06-14T19:42:13.645Z,17.00
2018-06-14T19:44:44.497Z,17.00
2018-06-14T19:47:13.084Z,17.00
2018-06-14T19:49:41.901Z,17.00
2018-06-14T19:52:11.836Z,17.00
2018-06-14T19:54:41.830Z,17.10
2018-06-14T19:57:10.899Z,17.00
2018-06-14T19:59:42.089Z,17.00
2018-06-14T20:02:13.136Z,16.80
2018-06-14T20:04:46.712Z,16.90
2018-06-14T20:07:15.244Z,16.80
2018-06-14T20:09:44.208Z,16.80
2018-06-14T20:12:13.517Z,16.70
2018-06-14T20:14:46.136Z,16.70
2018-06-14T20:17:15.641Z,16.60
2018-06-14T20:19:45.063Z,16.60
2018-06-14T20:22:14.512Z,16.60
2018-06-14T20:24:43.182Z,16.60
2018-06-14T20:27:13.907Z,16.60
2018-06-14T20:29:43.430Z,16.60
2018-06-14T20:32:13.513Z,16.60
2018-06-14T20:34:43.554Z,16.60
2018-06-14T20:37:13.108Z,16.60
2018-06-14T20:39:41.721Z,16.60
2018-06-14T20:42:12.686Z,16.60
2018-06-14T20:44:44.004Z,16.70
2018-06-14T20:47:14.515Z,16.70
2018-06-14T20:49:45.173Z,16.70
2018-06-14T20:52:14.099Z,16.70
2018-06-14T20:54:44.039Z,16.70
2018-06-14T20:57:13.396Z,16.60
2018-06-14T20:59:44.129Z,16.60
2018-06-14T21:02:16.399Z,16.60
2018-06-14T21:04:46.584Z,16.60
2018-06-14T21:07:17.477Z,16.50
2018-06-14T21:09:47.002Z,16.50
2018-06-14T21:12:16.157Z,16.50
2018-06-14T21:14:44.853Z,16.40
2018-06-14T21:17:14.778Z,16.40
2018-06-14T21:19:44.202Z,16.40
2018-06-14T21:22:13.507Z,16.30
2018-06-14T21:24:43.908Z,16.30
2018-06-14T21:27:12.630Z,16.20
2018-06-14T21:29:41.215Z,16.20
2018-06-14T21:32:11.524Z,16.10
2018-06-14T21:34:43.976Z,16.10
2018-06-14T21:37:13.501Z,16.00
2018-06-14T21:39:42.104Z,16.00
2018-06-14T21:42:10.729Z,16.00
2018-06-14T21:47:11.256Z,16.00
2018-06-14T21:49:40.638Z,16.00
2018-06-14T21:52:10.066Z,16.00
2018-06-14T21:54:41.535Z,16.00
2018-06-14T21:57:15.696Z,15.90
2018-06-14T21:59:47.063Z,15.80
2018-06-14T22:02:15.678Z,15.70
2018-06-14T22:04:45.016Z,15.80
2018-06-14T22:07:15.078Z,15.70
2018-06-14T22:12:17.329Z,15.80
2018-06-14T22:14:47.398Z,15.80
2018-06-14T22:17:18.559Z,15.80
2018-06-14T22:19:47.982Z,15.80
2018-06-14T22:22:17.132Z,15.80
2018-06-14T22:24:46.292Z,15.80
2018-06-14T22:27:15.552Z,15.90
2018-06-14T22:29:44.850Z,15.90
2018-06-14T22:32:16.795Z,15.90
2018-06-14T22:34:56.495Z,15.90
2018-06-14T22:37:26.819Z,15.90
2018-06-14T22:39:55.576Z,15.80
2018-06-14T22:42:24.896Z,15.90
2018-06-14T22:44:54.462Z,15.90
2018-06-14T22:47:23.673Z,15.90
2018-06-14T22:49:52.182Z,15.90
2018-06-14T22:52:43.959Z,15.90
2018-06-14T22:55:15.741Z,15.90
2018-06-14T22:57:45.070Z,15.90
2018-06-14T23:01:20.937Z,16.00
2018-06-14T23:03:50.650Z,16.00
2018-06-14T23:06:20.114Z,16.00
2018-06-14T23:08:48.692Z,16.00
2018-06-14T23:11:20.382Z,16.00
2018-06-14T23:13:50.665Z,16.00
2018-06-14T23:16:19.355Z,16.10
2018-06-14T23:18:48.923Z,16.00
2018-06-14T23:21:17.580Z,16.00
2018-06-14T23:23:49.420Z,16.10
2018-06-14T23:26:20.431Z,16.10
2018-06-14T23:28:51.421Z,16.10
2018-06-14T23:31:21.183Z,16.10
2018-06-14T23:33:50.971Z,16.10
2018-06-14T23:45:55.220Z,16.10
2018-06-14T23:48:30.876Z,16.10
2018-06-14T23:53:27.797Z,15.80
2018-06-14T23:55:56.308Z,15.90
2018-06-14T23:58:25.743Z,15.90
